Impacts TAF Board INFO
FOR SITUATIONAL AWARENESS. NOT TO BE USED FOR FLIGHT PLANNING PURPOSES.
IDs:

KIAD - Washington/Dulles In, VA, US

Issued at 1744 UTC 18 Feb 2018
Updated at 1810 UTC 18 Feb 2018
Potential Impact None Slight Moderate High
Time1752Z 18/19Z 18/20Z 18/21Z 18/22Z 18/23Z 19/00Z 19/01Z 19/02Z 19/03Z 19/04Z 19/05Z 19/06Z 19/07Z>>
Type OBS PRVL PRVL PRVL PRVL PRVL PRVL PRVL PRVL PRVL PRVL PRVL PRVL PRVL
VIS 10 >6 >6 >6 >6 >6 >6 >6 >6 >6 >6 >6 >6 >6
CIG 250 -- -- -- -- -- -- -- -- -- -- -- -- --
Cover BKN SCT SCT SCT FEW FEW FEW FEW FEW FEW FEW FEW FEW FEW
FltCat VFR VFR VFR VFR VFR VFR VFR VFR VFR VFR VFR VFR VFR VFR
WX -- -- -- -- -- -- -- -- -- -- -- -- -- --
WDir 270 290 290 290 210 210 130 130 130 130 130 130 130 130
WSpd 4 8 8 8 6 6 5 5 5 5 5 5 5 5
WGst -- -- -- -- -- -- -- -- -- -- -- -- -- --

Raw TAF
KIAD 181744Z 1818/1924 29008KT P6SM SCT050
  FM182200 21006KT P6SM FEW250
  FM190000 13005KT P6SM FEW250
  FM191200 17006KT P6SM BKN030
  FM191500 18008KT P6SM BKN015
  FM192200 18009KT P6SM BKN060


Raw METAR
KIAD 181752Z 27004KT 10SM SCT046 BKN250 08/M01 A3042 RMK AO2 SLP302 I6000 T00831006 10083 21006 50012 $
KIAD 181652Z 28003KT 10SM FEW030 SCT049 SCT250 07/M01 A3042 RMK AO2 SLP303 T00721006 $
KIAD 181552Z 17004KT 10SM FEW030 BKN048 04/02 A3040 RMK AO2 SLP296 T00440017 $

METAR Board
Radar Display
Forecast Discussion

FOR SITUATIONAL AWARENESS. NOT TO BE USED FOR FLIGHT PLANNING PURPOSES.